Flight Track Log - Related Links

Times and Time Zones

All times are in EDT time to prevent confusion due to time zone crossing. See the EJA834P flight status page for this flight to view local times or setup timezone preferences in your user account.

Time Position Orientation Groundspeed Altitude Reporting Facility
EDT Latitude Longitude Course Direction KTS MPH feet Rate Location/Type
Sat 03:51:23 PM 39.6397 -106.9375 90° East 184 212 7,300  Level Denver Center
Sat 03:52:25 PM 39.6011 -106.9803 220° Southwest 194 223 10,300 2,661 Climbing Denver Center
Sat 03:53:27 PM 39.6189 -107.0400 291° West 247 284 12,800 2,488 Climbing Denver Center
Sat 03:54:28 PM 39.6953 -107.0567 350° North 280 322 15,400 2,244 Climbing Denver Center
Sat 03:55:00 PM 40.0333 -106.1138 90° East  Level FlightAware Approximate
Sat 03:55:30 PM 39.7714 -107.0528 North 306 352 17,400  Level Denver Center
Sat 03:56:00 PM 40.0333 -105.9836 90° East  Level FlightAware Approximate
Sat 03:56:32 PM 39.8125 -106.9536 62° Northeast 325 374 19,700  Level Denver Center
Sat 03:57:33 PM 39.8353 -106.8344 76° East 335 386 21,400 1,854 Climbing Denver Center
Sat 03:58:35 PM 39.8539 -106.7097 79° East 346 398 23,500 1,707 Climbing Denver Center
Sat 03:59:36 PM 39.8819 -106.5822 74° East 370 426 24,900 1,317 Climbing Denver Center
Sat 04:00:38 PM 39.9078 -106.4300 77° East 393 452 26,200 1,452 Climbing Denver Center
Sat 04:01:40 PM 39.9331 -106.2858 77° East 405 466 27,900 1,610 Climbing Denver Center
Sat 04:02:41 PM 39.9589 -106.1414 77° East 409 471 29,500 1,659 Climbing Denver Center
Sat 04:03:43 PM 39.9844 -105.9992 77° East 405 466 31,300 1,561 Climbing Denver Center
Sat 04:04:44 PM 40.0089 -105.8558 77° East 406 467 32,700 1,610 Climbing Denver Center
Sat 04:05:46 PM 40.0386 -105.6786 78° East 416 479 34,600 1,645 Climbing Denver Center
Sat 04:06:48 PM 40.0631 -105.5347 77° East 407 468 36,100 1,561 Climbing Denver Center
Sat 04:07:49 PM 40.0864 -105.3933 78° East 398 458 37,800 1,415 Climbing Denver Center
Sat 04:08:51 PM 40.1100 -105.2506 78° East 400 460 39,000 585 Climbing Denver Center
Sat 04:09:52 PM 40.1344 -105.1042 78° East 411 473 39,000  Level Denver Center
Sat 04:10:54 PM 40.1614 -104.9442 78° East 443 510 39,000  Level Denver Center
Sat 04:11:56 PM 40.1889 -104.7831 77° East 451 519 39,000  Level Denver Center
Sat 04:12:57 PM 40.2144 -104.6175 79° East 463 533 39,000  Level Denver Center
Sat 04:13:59 PM 40.2403 -104.4539 78° East 458 527 39,000  Level Denver Center
Sat 04:15:01 PM 40.2722 -104.2586 78° East 455 524 39,000  Level Denver Center
Sat 04:16:02 PM 40.2972 -104.0933 79° East 460 529 39,000  Level Denver Center
Sat 04:17:04 PM 40.3228 -103.9344 78° East 446 513 39,000  Level Denver Center
Sat 04:18:05 PM 40.3475 -103.7711 79° East 454 522 39,000  Level Denver Center
Sat 04:19:07 PM 40.3714 -103.6144 79° East 442 509 39,000  Level Denver Center
Sat 04:20:09 PM 40.3961 -103.4536 79° East 450 518 39,000  Level Denver Center
Sat 04:21:10 PM 40.4186 -103.2942 79° East 446 513 39,000  Level Denver Center
Sat 04:22:12 PM 40.4433 -103.1381 78° East 439 505 39,000  Level Denver Center
Sat 04:23:14 PM 40.4714 -102.9508 79° East 436 502 39,000  Level Denver Center
Sat 04:24:15 PM 40.4931 -102.7950 80° East 435 501 39,000  Level Denver Center
Sat 04:25:17 PM 40.5156 -102.6431 79° East 437 503 39,000  Level Denver Center
Sat 04:26:19 PM 40.5350 -102.4942 80° East 434 499 39,000  Level Denver Center
Sat 04:27:20 PM 40.5608 -102.3203 79° East 433 498 39,000  Level Denver Center
Sat 04:28:22 PM 40.5817 -102.1717 79° East 433 498 39,000  Level Denver Center
Sat 04:29:23 PM 40.6047 -101.9967 80° East 434 499 39,000  Level Denver Center
Sat 04:30:25 PM 40.6275 -101.8467 79° East 436 502 39,000  Level Denver Center
Sat 04:31:27 PM 40.6511 -101.6711 80° East 436 502 39,000  Level Denver Center
Sat 04:32:28 PM 40.6706 -101.5200 80° East 438 504 39,000  Level Denver Center
Sat 04:33:30 PM 40.6906 -101.3694 80° East 437 503 39,000  Level Denver Center
Sat 04:34:32 PM 40.7133 -101.1925 80° East 439 505 39,000  Level Denver Center
Sat 04:35:33 PM 40.7325 -101.0419 80° East 437 503 39,000  Level Denver Center
Sat 04:36:35 PM 40.7539 -100.8669 81° East 437 503 39,000  Level Denver Center
Sat 04:37:37 PM 40.7744 -100.7231 79° East 439 505 39,000  Level Denver Center
Sat 04:38:38 PM 40.7961 -100.5447 81° East 443 510 39,000  Level Denver Center
Sat 04:39:40 PM 40.8139 -100.3975 81° East 431 496 39,000  Level Denver Center
Sat 04:40:42 PM 40.8356 -100.2236 81° East 430 495 39,000  Level Denver Center
Sat 04:41:43 PM 40.8503 -100.0986 81° East 431 496 39,000  Level Denver Center
Sat 04:42:45 PM 40.8739 -99.8997 81° East 431 496 39,000  Level Denver Center
Sat 04:43:47 PM 40.8908 -99.7533 81° East 428 493 39,000  Level Denver Center
Sat 04:44:48 PM 40.9097 -99.5978 81° East 428 493 39,000  Level Denver Center
Sat 04:45:50 PM 40.9267 -99.4439 82° East 425 489 39,000  Level Denver Center
Sat 04:46:51 PM 40.9475 -99.2597 81° East 424 488 39,000  Level Denver Center
Sat 04:47:53 PM 40.9639 -99.1125 82° East 422 486 39,000  Level Denver Center
Sat 04:48:55 PM 40.9792 -98.9664 82° East 420 483 39,000  Level Denver Center
Sat 04:49:57 PM 40.9967 -98.7936 82° East 424 488 39,000  Level Denver Center
Sat 04:50:58 PM 41.0125 -98.6519 82° East 428 493 39,000  Level Denver Center
Sat 04:52:00 PM 41.0331 -98.4703 81° East 422 486 39,000  Level Denver Center
Sat 04:53:29 PM 41.0553 -98.2569 82° East 421 484 39,000  Level Minneapolis Center
Sat 04:54:31 PM 41.0708 -98.1019 82° East 424 488 39,000  Level Minneapolis Center
Sat 04:55:33 PM 41.0867 -97.9458 82° East 427 491 39,000  Level Minneapolis Center
Sat 04:56:35 PM 41.1022 -97.7906 82° East 426 490 39,000  Level Minneapolis Center
Sat 04:57:37 PM 41.1206 -97.6061 82° East 422 486 39,000  Level Minneapolis Center
Sat 04:58:38 PM 41.1311 -97.4844 83° East 418 481 39,000  Level Minneapolis Center
Sat 04:59:41 PM 41.1478 -97.3133 83° East 416 479 39,000  Level Minneapolis Center
Sat 05:00:44 PM 41.1625 -97.1631 83° East 412 474 39,000 -238 Level Minneapolis Center
Sat 05:01:47 PM 41.1800 -96.9783 83° East 420 483 38,500 -1,200 Descending Minneapolis Center
Sat 05:02:49 PM 41.1942 -96.8208 83° East 428 493 36,500 -1,707 Descending Minneapolis Center
Sat 05:03:50 PM 41.2089 -96.6608 83° East 436 502 35,000 -878 Descending Minneapolis Center
Sat 05:04:52 PM 41.2225 -96.5058 83° East 426 490 34,700 -1,258 Descending Minneapolis Center
Sat 05:05:54 PM 41.2389 -96.3242 83° East 423 487 32,400 -1,839 Descending Minneapolis Center
Sat 05:06:56 PM 41.2483 -96.2128 84° East 423 487 30,900 -2,177 Descending Minneapolis Center
Sat 05:07:58 PM 41.2631 -96.0258 84° East 424 488 27,900 -2,661 Descending Minneapolis Center
Sat 05:09:00 PM 41.2758 -95.8667 84° East 433 498 25,400 -2,081 Descending Minneapolis Center
Sat 05:10:02 PM 41.2917 -95.6794 84° East 426 490 23,600 -1,548 Descending Minneapolis Center
Sat 05:11:04 PM 41.3025 -95.5531 83° East 415 478 22,200 -1,467 Descending Minneapolis Center
Sat 05:12:17 PM 41.3181 -95.3767 83° East 402 463 20,300 -1,676 Descending Minneapolis Center
Sat 05:13:20 PM 41.3408 -95.2028 80° East 400 460 18,400 -1,544 Descending Minneapolis Center
Sat 05:14:33 PM 41.3594 -95.0656 80° East 383 441 16,800 -1,765 Descending Minneapolis Center
Sat 05:15:36 PM 41.3794 -94.8981 81° East 382 440 14,400 -2,211 Descending Minneapolis Center
Sat 05:16:08 PM 41.3972 -94.8089 75° East 373 429 13,300 -1,935 Descending Minneapolis Center
Sat 05:16:38 PM 41.3964 -94.7667 91° East 370 426 12,400 -1,881 Descending Minneapolis Center
Sat 05:17:15 PM 41.4158 -94.6606 76° East 357 411 11,200 -866 Descending Minneapolis Center
Sat 05:18:15 PM 41.4328 -94.5261 80° East 363 418 11,000 -1,041 Descending Minneapolis Center
Sat 05:19:16 PM 41.4589 -94.4128 73° East 317 365 9,100 -2,033 Descending Minneapolis Center
Sat 05:20:16 PM 41.4831 -94.3053 73° East 309 356 6,900 -2,083 Descending Minneapolis Center
Sat 05:21:17 PM 41.5072 -94.1978 73° East 301 346 4,900 -1,846 Descending Minneapolis Center
Sat 05:21:47 PM 41.5125 -94.1517 81° East 295 339 4,100 -787 Descending Minneapolis Center
Sat 05:22:18 PM 41.5314 -94.0900 68° East 284 327 4,100 -97 Level Minneapolis Center
Sat 05:22:49 PM 41.5339 -94.0547 85° East 276 318 4,000  Descending Minneapolis Center
Sat 05:23:19 PM 41.5517 -93.9939 69° East 273 314 4,100  Climbing Minneapolis Center
Sat 05:23:50 PM 41.5569 -93.9525 80° East 268 308 4,000 -65 Descending Minneapolis Center
Sat 05:24:52 PM 41.5778 -93.8617 73° East 259 298 4,000 -339 Level Minneapolis Center
Sat 05:25:54 PM 41.5917 -93.7867 76° East 213 245 3,300 -871 Descending Minneapolis Center
Sat 05:26:56 PM 41.5811 -93.7264 103° East 159 183 2,200 -976 Descending Minneapolis Center
Sat 05:27:57 PM 41.5589 -93.6936 132° Southeast 123 142 1,300 -683 Descending Minneapolis Center
Sat 05:28:59 PM 41.5419 -93.6694 133° Southeast 112 129 800 -484 Descending Minneapolis Center
Sat 05:30:00 PM 41.5340 -93.6631 72° East  Level Estimated

Login

Don't have an account? Register now (free) for customized features, flight alerts, and more!